Time;durP1;ratioP1;P1;durP2;ratioP2;P2;SDS_P1;SDS_P2;PMS_P1;PMS_P2;Temp;Humidity;BMP_temperature;BMP_pressure;BME280_temperature;BME280_humidity;BME280_pressure;Samples;Min_cycle;Max_cycle;Signal;HPM_P1;HPM_P2
2023/09/12 00:01:22;;;;;;;45.28;26.25;;;;;;;;;;4990252;28;25102;-71
2023/09/12 00:03:48;;;;;;;41.85;25.65;;;;;;;;;;4989371;28;25055;-72
2023/09/12 00:06:14;;;;;;;39.47;25.08;;;;;;;;;;4990055;28;25152;-72
2023/09/12 00:08:40;;;;;;;38.60;25.10;;;;;;;;;;4990147;28;25149;-71
2023/09/12 00:11:10;;;;;;;41.80;25.88;;;;;;;;;;4989674;28;25073;-70
2023/09/12 00:13:36;;;;;;;38.15;23.77;;;;;;;;;;4988134;28;25046;-72
2023/09/12 00:16:02;;;;;;;41.28;26.10;;;;;;;;;;4988962;28;25088;-71
2023/09/12 00:18:28;;;;;;;44.53;27.25;;;;;;;;;;4983071;28;25081;-72
2023/09/12 00:20:54;;;;;;;44.60;27.70;;;;;;;;;;4991050;28;25127;-72
2023/09/12 00:23:22;;;;;;;44.28;27.30;;;;;;;;;;4989255;28;25052;-74
2023/09/12 00:25:48;;;;;;;43.33;27.33;;;;;;;;;;4986162;28;25058;-71
2023/09/12 00:28:14;;;;;;;43.38;27.17;;;;;;;;;;4991750;28;25146;-72
2023/09/12 00:30:40;;;;;;;41.40;25.85;;;;;;;;;;4989985;28;25106;-72
2023/09/12 00:33:06;;;;;;;39.67;26.38;;;;;;;;;;4988523;28;25081;-71
2023/09/12 00:35:32;;;;;;;41.08;26.40;;;;;;;;;;4990193;28;25144;-72
2023/09/12 00:37:58;;;;;;;38.85;27.02;;;;;;;;;;4985823;28;25081;-71
2023/09/12 00:40:24;;;;;;;43.88;26.58;;;;;;;;;;4986032;28;25160;-72
2023/09/12 00:42:50;;;;;;;40.20;26.45;;;;;;;;;;4989736;28;25056;-74
2023/09/12 00:45:16;;;;;;;41.53;27.08;;;;;;;;;;4999897;28;25100;-72
2023/09/12 00:47:41;;;;;;;42.15;26.27;;;;;;;;;;5005106;28;25066;-76
2023/09/12 00:50:08;;;;;;;42.15;27.05;;;;;;;;;;5000365;28;25063;-75
2023/09/12 00:52:35;;;;;;;47.20;27.80;;;;;;;;;;4999446;28;25074;-70
2023/09/12 00:55:02;;;;;;;41.75;26.38;;;;;;;;;;4992087;28;25098;-72
2023/09/12 00:57:28;;;;;;;44.42;27.42;;;;;;;;;;4990742;28;25093;-72
2023/09/12 00:59:55;;;;;;;39.40;26.58;;;;;;;;;;4986503;28;25084;-71
2023/09/12 01:02:22;;;;;;;38.80;26.77;;;;;;;;;;4989614;28;25071;-72
2023/09/12 01:04:48;;;;;;;46.33;27.35;;;;;;;;;;4996545;28;25059;-71
2023/09/12 01:07:14;;;;;;;45.00;27.92;;;;;;;;;;4996416;28;25067;-72
2023/09/12 01:09:41;;;;;;;46.03;28.30;;;;;;;;;;4988394;28;25056;-72
2023/09/12 01:12:07;;;;;;;45.33;28.88;;;;;;;;;;4987895;28;25069;-70
2023/09/12 01:14:33;;;;;;;45.60;26.60;;;;;;;;;;4990064;28;25069;-71
2023/09/12 01:16:59;;;;;;;38.65;25.48;;;;;;;;;;4989236;28;25056;-73
2023/09/12 01:19:25;;;;;;;44.50;27.02;;;;;;;;;;4986965;28;25068;-71
2023/09/12 01:21:57;;;;;;;49.55;29.60;;;;;;;;;;4987727;28;25130;-70
2023/09/12 01:24:29;;;;;;;45.85;27.70;;;;;;;;;;4988483;28;25048;-71
2023/09/12 01:27:14;;;;;;;47.97;28.40;;;;;;;;;;4988738;28;25076;-72
2023/09/12 01:29:41;;;;;;;46.38;26.55;;;;;;;;;;4988498;28;25044;-72
2023/09/12 01:32:07;;;;;;;49.13;28.23;;;;;;;;;;4986902;28;25052;-72
2023/09/12 01:34:33;;;;;;;45.55;27.85;;;;;;;;;;4987417;28;25066;-71
2023/09/12 01:37:00;;;;;;;45.85;28.38;;;;;;;;;;4983574;28;25065;-71
2023/09/12 01:39:26;;;;;;;43.05;27.48;;;;;;;;;;4986319;28;25108;-72
2023/09/12 01:41:53;;;;;;;47.17;29.25;;;;;;;;;;4983218;28;25102;-72
2023/09/12 01:44:20;;;;;;;43.97;27.63;;;;;;;;;;4986526;28;25069;-69
2023/09/12 01:46:47;;;;;;;52.55;29.52;;;;;;;;;;4989772;28;25089;-72
2023/09/12 01:49:14;;;;;;;49.38;28.17;;;;;;;;;;4988979;28;25060;-71
2023/09/12 01:51:40;;;;;;;47.35;28.40;;;;;;;;;;4988409;28;25149;-72
2023/09/12 01:54:07;;;;;;;44.78;26.98;;;;;;;;;;4988469;28;25074;-72
2023/09/12 01:56:34;;;;;;;46.05;27.23;;;;;;;;;;4985776;28;25079;-71
2023/09/12 01:59:00;;;;;;;45.30;28.25;;;;;;;;;;4986240;28;25072;-72
2023/09/12 02:01:27;;;;;;;48.95;28.05;;;;;;;;;;4991535;28;25062;-70
2023/09/12 02:03:53;;;;;;;46.63;29.08;;;;;;;;;;4987304;28;25062;-72
2023/09/12 02:06:19;;;;;;;45.25;27.95;;;;;;;;;;4983540;28;25118;-74
2023/09/12 02:08:45;;;;;;;52.00;29.83;;;;;;;;;;4984250;28;25076;-71
2023/09/12 02:11:11;;;;;;;53.38;30.48;;;;;;;;;;4986145;28;25104;-71
2023/09/12 02:13:37;;;;;;;48.63;28.38;;;;;;;;;;4988516;28;25057;-72
2023/09/12 02:16:03;;;;;;;50.60;28.25;;;;;;;;;;4987175;28;25074;-73
2023/09/12 02:18:29;;;;;;;50.63;29.75;;;;;;;;;;4982210;28;25069;-71
2023/09/12 02:20:55;;;;;;;49.35;29.48;;;;;;;;;;4989080;28;25191;-71
2023/09/12 02:23:22;;;;;;;58.55;32.45;;;;;;;;;;4986738;28;25140;-74
2023/09/12 02:25:48;;;;;;;59.05;30.95;;;;;;;;;;4988855;28;25081;-72
2023/09/12 02:28:14;;;;;;;52.35;30.67;;;;;;;;;;4992959;28;25081;-71
2023/09/12 02:30:40;;;;;;;52.92;30.67;;;;;;;;;;5000624;28;25146;-73
2023/09/12 02:33:06;;;;;;;54.25;30.50;;;;;;;;;;4990896;28;25063;-72
2023/09/12 02:35:32;;;;;;;55.70;30.65;;;;;;;;;;4989717;28;25144;-72
2023/09/12 02:37:58;;;;;;;59.90;31.50;;;;;;;;;;4991111;28;25065;-72
2023/09/12 02:40:24;;;;;;;59.22;32.42;;;;;;;;;;4995681;28;25155;-72
2023/09/12 02:42:51;;;;;;;55.33;32.50;;;;;;;;;;4993867;28;25063;-71
2023/09/12 02:45:17;;;;;;;54.10;31.00;;;;;;;;;;4990590;28;25045;-72
2023/09/12 02:47:43;;;;;;;53.90;30.55;;;;;;;;;;4979452;28;25066;-71
2023/09/12 02:50:09;;;;;;;56.20;33.10;;;;;;;;;;4991082;28;25064;-71
2023/09/12 02:52:36;;;;;;;58.28;33.45;;;;;;;;;;4990429;28;25091;-72
2023/09/12 02:55:02;;;;;;;42.55;27.38;;;;;;;;;;4991053;28;25046;-71
2023/09/12 02:57:28;;;;;;;52.42;30.65;;;;;;;;;;4992094;28;24752;-70
2023/09/12 02:59:54;;;;;;;46.70;29.45;;;;;;;;;;4992470;28;25160;-71
2023/09/12 03:02:20;;;;;;;53.40;31.38;;;;;;;;;;4995829;28;25056;-71
2023/09/12 03:04:46;;;;;;;55.33;31.88;;;;;;;;;;4988717;28;25102;-70
2023/09/12 03:07:12;;;;;;;57.15;32.13;;;;;;;;;;4991534;28;25063;-75
2023/09/12 03:09:38;;;;;;;59.45;31.77;;;;;;;;;;4983144;28;25137;-72
2023/09/12 03:12:05;;;;;;;58.08;31.08;;;;;;;;;;4987678;28;25075;-72
2023/09/12 03:14:31;;;;;;;52.13;30.48;;;;;;;;;;4989169;28;25065;-72
2023/09/12 03:16:57;;;;;;;56.58;30.77;;;;;;;;;;4991504;28;25072;-72
2023/09/12 03:19:23;;;;;;;43.10;26.23;;;;;;;;;;4992279;28;25207;-74
2023/09/12 03:21:49;;;;;;;56.60;30.33;;;;;;;;;;4996522;28;25093;-73
2023/09/12 03:24:18;;;;;;;59.35;31.10;;;;;;;;;;4990764;28;25063;-72
2023/09/12 03:26:44;;;;;;;59.00;32.25;;;;;;;;;;4987988;28;25080;-72
2023/09/12 03:29:10;;;;;;;55.40;30.40;;;;;;;;;;5000243;28;25140;-72
2023/09/12 03:31:36;;;;;;;53.38;31.55;;;;;;;;;;4986320;28;25104;-71
2023/09/12 03:34:02;;;;;;;65.45;31.95;;;;;;;;;;4990921;28;25078;-73
2023/09/12 03:36:28;;;;;;;56.65;32.35;;;;;;;;;;4992367;28;25061;-71
2023/09/12 03:38:54;;;;;;;53.10;31.88;;;;;;;;;;4990174;28;25068;-70
2023/09/12 03:41:24;;;;;;;68.40;34.15;;;;;;;;;;5000619;28;25049;-73
2023/09/12 03:43:50;;;;;;;57.00;32.45;;;;;;;;;;4990144;28;25084;-69
2023/09/12 03:46:16;;;;;;;53.17;30.98;;;;;;;;;;4990056;28;25066;-73
2023/09/12 03:48:42;;;;;;;57.25;31.90;;;;;;;;;;4994819;28;25073;-72
2023/09/12 03:51:08;;;;;;;61.53;33.13;;;;;;;;;;4990718;28;25088;-71
2023/09/12 03:53:34;;;;;;;49.38;31.25;;;;;;;;;;4992950;28;25074;-72
2023/09/12 03:56:00;;;;;;;53.38;30.80;;;;;;;;;;4991335;28;25059;-72
2023/09/12 03:58:26;;;;;;;60.85;32.83;;;;;;;;;;4990663;28;25074;-71
2023/09/12 04:00:52;;;;;;;55.78;31.55;;;;;;;;;;4990898;28;25040;-76
2023/09/12 04:03:20;;;;;;;60.95;32.35;;;;;;;;;;4992397;28;25134;-72
2023/09/12 04:05:47;;;;;;;59.92;31.75;;;;;;;;;;4983313;28;25102;-70
2023/09/12 04:08:13;;;;;;;61.58;32.97;;;;;;;;;;4993861;28;25100;-71
2023/09/12 04:10:39;;;;;;;60.80;34.22;;;;;;;;;;4987895;28;25076;-73
2023/09/12 04:13:05;;;;;;;53.83;32.30;;;;;;;;;;4993580;28;25117;-72
2023/09/12 04:15:31;;;;;;;61.65;31.75;;;;;;;;;;4990203;28;25128;-70
2023/09/12 04:17:57;;;;;;;58.00;31.80;;;;;;;;;;4984863;28;25157;-72
2023/09/12 04:20:23;;;;;;;66.03;35.33;;;;;;;;;;4989090;28;25080;-70
2023/09/12 04:22:49;;;;;;;61.33;34.92;;;;;;;;;;4990297;28;25099;-71
2023/09/12 04:25:15;;;;;;;58.75;33.67;;;;;;;;;;4992891;28;25059;-72
2023/09/12 04:27:42;;;;;;;62.70;35.28;;;;;;;;;;5000517;28;25128;-70
2023/09/12 04:30:08;;;;;;;69.07;34.45;;;;;;;;;;5010447;28;25080;-71
2023/09/12 04:32:34;;;;;;;68.25;35.53;;;;;;;;;;4994124;28;25058;-70
2023/09/12 04:35:01;;;;;;;65.85;33.58;;;;;;;;;;4987998;28;25046;-70
2023/09/12 04:37:27;;;;;;;65.32;34.97;;;;;;;;;;4990003;28;25124;-69
2023/09/12 04:39:53;;;;;;;70.47;37.35;;;;;;;;;;4995755;28;25059;-70
2023/09/12 04:42:19;;;;;;;71.30;36.25;;;;;;;;;;4980030;28;25068;-73
2023/09/12 04:44:45;;;;;;;74.68;36.67;;;;;;;;;;4989401;28;25097;-71
2023/09/12 04:47:11;;;;;;;70.90;36.38;;;;;;;;;;4987007;28;25049;-72
2023/09/12 04:49:37;;;;;;;74.30;37.38;;;;;;;;;;4989298;28;25062;-71
2023/09/12 04:52:03;;;;;;;59.35;32.13;;;;;;;;;;4989325;28;25048;-71
2023/09/12 04:54:29;;;;;;;72.25;37.03;;;;;;;;;;4985085;28;25158;-71
2023/09/12 04:56:55;;;;;;;77.18;38.47;;;;;;;;;;4980769;28;25062;-71
2023/09/12 04:59:21;;;;;;;76.63;38.65;;;;;;;;;;5006382;28;25076;-73
2023/09/12 05:01:47;;;;;;;79.18;38.28;;;;;;;;;;5000628;28;25062;-71
2023/09/12 05:04:12;;;;;;;80.70;38.30;;;;;;;;;;4993828;28;25069;-70
2023/09/12 05:06:39;;;;;;;77.68;37.55;;;;;;;;;;4994153;28;25075;-72
2023/09/12 05:09:08;;;;;;;79.22;39.65;;;;;;;;;;4993195;28;25053;-72
2023/09/12 05:11:34;;;;;;;89.60;40.45;;;;;;;;;;4990271;28;25063;-71
2023/09/12 05:14:03;;;;;;;87.03;39.75;;;;;;;;;;4987536;28;25067;-71
2023/09/12 05:16:29;;;;;;;88.93;45.90;;;;;;;;;;4991368;28;25083;-73
2023/09/12 05:18:55;;;;;;;87.78;40.90;;;;;;;;;;4988421;28;25053;-70
2023/09/12 05:21:21;;;;;;;80.10;39.03;;;;;;;;;;4989628;28;25083;-73
2023/09/12 05:23:47;;;;;;;81.88;38.72;;;;;;;;;;4988356;28;25069;-72
2023/09/12 05:26:13;;;;;;;92.20;40.53;;;;;;;;;;4994643;28;25077;-71
2023/09/12 05:28:39;;;;;;;86.88;39.13;;;;;;;;;;4994396;28;25080;-71
2023/09/12 05:31:05;;;;;;;89.72;40.85;;;;;;;;;;4998151;28;25096;-71
2023/09/12 05:33:31;;;;;;;89.72;40.00;;;;;;;;;;4990707;28;25064;-78
2023/09/12 05:35:57;;;;;;;89.68;40.08;;;;;;;;;;4979339;28;25162;-70
2023/09/12 05:38:24;;;;;;;90.15;40.15;;;;;;;;;;4989729;28;25155;-71
2023/09/12 05:40:50;;;;;;;87.13;40.75;;;;;;;;;;4983391;28;25108;-71
2023/09/12 05:43:16;;;;;;;89.88;40.92;;;;;;;;;;4994315;28;25067;-68
2023/09/12 05:45:42;;;;;;;92.75;39.92;;;;;;;;;;4988113;28;25095;-72
2023/09/12 05:48:09;;;;;;;84.93;39.35;;;;;;;;;;4991072;28;25069;-71
2023/09/12 05:50:36;;;;;;;86.75;40.90;;;;;;;;;;4985999;28;25043;-70
2023/09/12 05:53:02;;;;;;;86.75;40.15;;;;;;;;;;4990287;28;25049;-70
2023/09/12 05:55:28;;;;;;;89.47;41.58;;;;;;;;;;4990649;28;25070;-71
2023/09/12 05:57:54;;;;;;;95.63;41.38;;;;;;;;;;4997082;28;25144;-72
2023/09/12 06:00:20;;;;;;;94.32;42.22;;;;;;;;;;4997047;28;25137;-70
2023/09/12 06:02:46;;;;;;;89.68;40.58;;;;;;;;;;4995176;28;25061;-70
2023/09/12 06:05:12;;;;;;;78.78;38.80;;;;;;;;;;4997282;28;25129;-72
2023/09/12 06:07:40;;;;;;;81.65;40.03;;;;;;;;;;4991033;28;25052;-74
2023/09/12 06:10:06;;;;;;;77.90;39.85;;;;;;;;;;4990521;28;25098;-71
2023/09/12 06:12:32;;;;;;;78.75;39.67;;;;;;;;;;4992432;28;25087;-72
2023/09/12 06:14:59;;;;;;;82.05;38.95;;;;;;;;;;4993661;28;25071;-73
2023/09/12 06:17:24;;;;;;;89.93;40.78;;;;;;;;;;4994011;28;25073;-71
2023/09/12 06:19:51;;;;;;;93.25;41.40;;;;;;;;;;4988996;28;25076;-72
2023/09/12 06:22:17;;;;;;;81.18;41.30;;;;;;;;;;4995827;28;25054;-75
2023/09/12 06:24:44;;;;;;;78.97;39.28;;;;;;;;;;4994173;28;25076;-71
2023/09/12 06:27:13;;;;;;;80.82;41.25;;;;;;;;;;4991364;28;25148;-72
2023/09/12 06:29:39;;;;;;;83.82;40.17;;;;;;;;;;4992131;28;25079;-71
2023/09/12 06:32:05;;;;;;;89.13;41.42;;;;;;;;;;4995920;28;25096;-71
2023/09/12 06:34:31;;;;;;;85.07;40.75;;;;;;;;;;4991880;28;25076;-72
2023/09/12 06:36:57;;;;;;;83.00;41.20;;;;;;;;;;4994523;28;25090;-75
2023/09/12 06:39:24;;;;;;;91.57;41.45;;;;;;;;;;4994842;28;25059;-72
2023/09/12 06:41:50;;;;;;;77.93;39.30;;;;;;;;;;4992570;28;25065;-71
2023/09/12 06:44:16;;;;;;;88.85;41.83;;;;;;;;;;4989986;28;25050;-72
2023/09/12 06:46:42;;;;;;;82.28;39.92;;;;;;;;;;4990982;28;25058;-69
2023/09/12 06:49:08;;;;;;;79.70;40.95;;;;;;;;;;4994960;28;25094;-70
2023/09/12 06:51:34;;;;;;;86.22;39.95;;;;;;;;;;4994170;28;25069;-71
2023/09/12 06:54:00;;;;;;;90.47;42.67;;;;;;;;;;4991555;28;25082;-72
2023/09/12 06:56:27;;;;;;;88.03;42.13;;;;;;;;;;4987361;28;25160;-71
2023/09/12 06:58:54;;;;;;;87.63;42.28;;;;;;;;;;4988874;28;25082;-72
2023/09/12 07:01:21;;;;;;;96.22;41.63;;;;;;;;;;4994116;28;25071;-71
2023/09/12 07:03:47;;;;;;;84.18;41.50;;;;;;;;;;4995715;28;25058;-72
2023/09/12 07:06:13;;;;;;;88.93;44.28;;;;;;;;;;4988231;28;25070;-70
2023/09/12 07:08:39;;;;;;;94.30;43.10;;;;;;;;;;4994324;28;25070;-72
2023/09/12 07:11:06;;;;;;;77.20;39.92;;;;;;;;;;4988568;28;25094;-72
2023/09/12 07:13:35;;;;;;;72.07;38.65;;;;;;;;;;4992100;28;25124;-71
2023/09/12 07:16:03;;;;;;;84.05;42.05;;;;;;;;;;4996549;28;25068;-73
2023/09/12 07:18:30;;;;;;;83.85;43.80;;;;;;;;;;4995033;28;25076;-71
2023/09/12 07:20:59;;;;;;;89.57;44.78;;;;;;;;;;4994188;28;25089;-71
2023/09/12 07:23:25;;;;;;;97.88;46.90;;;;;;;;;;5011350;28;25112;-73
2023/09/12 07:25:52;;;;;;;101.72;48.42;;;;;;;;;;5009181;28;25089;-72
2023/09/12 07:28:19;;;;;;;101.55;47.88;;;;;;;;;;4994697;28;25064;-72
2023/09/12 07:30:48;;;;;;;98.30;47.00;;;;;;;;;;4991328;28;25086;-73
2023/09/12 07:33:15;;;;;;;101.20;47.20;;;;;;;;;;4995482;28;25074;-71
2023/09/12 07:35:41;;;;;;;100.20;47.97;;;;;;;;;;4999767;28;25065;-72
2023/09/12 07:38:07;;;;;;;97.45;46.25;;;;;;;;;;5004955;28;25068;-73
2023/09/12 07:40:33;;;;;;;89.00;43.97;;;;;;;;;;4993576;28;25055;-71
2023/09/12 07:42:59;;;;;;;88.72;44.15;;;;;;;;;;4991064;28;25071;-72
2023/09/12 07:45:25;;;;;;;91.53;45.40;;;;;;;;;;4998268;28;25139;-73
2023/09/12 07:47:51;;;;;;;83.78;43.15;;;;;;;;;;4996078;28;25076;-70
2023/09/12 07:50:17;;;;;;;88.85;43.20;;;;;;;;;;4987817;28;25072;-71
2023/09/12 07:52:43;;;;;;;85.32;43.45;;;;;;;;;;4989757;28;25083;-73
2023/09/12 07:55:09;;;;;;;75.80;40.75;;;;;;;;;;4993301;28;25075;-72
2023/09/12 07:57:36;;;;;;;75.63;39.38;;;;;;;;;;4991799;28;25050;-72
2023/09/12 08:00:04;;;;;;;75.55;41.22;;;;;;;;;;5000260;28;25063;-72
2023/09/12 08:02:30;;;;;;;75.32;40.83;;;;;;;;;;5002558;28;25103;-73
2023/09/12 08:04:56;;;;;;;72.90;43.90;;;;;;;;;;4989468;28;25098;-74
2023/09/12 08:07:22;;;;;;;75.78;43.03;;;;;;;;;;4990333;28;25059;-71
2023/09/12 08:09:52;;;;;;;72.78;41.88;;;;;;;;;;4991562;28;25067;-70
2023/09/12 08:12:18;;;;;;;74.10;42.83;;;;;;;;;;4985713;28;25102;-72
2023/09/12 08:14:45;;;;;;;76.28;43.45;;;;;;;;;;4989147;28;25145;-71
2023/09/12 08:17:11;;;;;;;75.72;44.00;;;;;;;;;;4991205;28;25069;-71
2023/09/12 08:19:37;;;;;;;71.95;44.28;;;;;;;;;;4997889;28;25080;-70
2023/09/12 08:22:03;;;;;;;80.18;46.20;;;;;;;;;;4991594;28;25054;-71
2023/09/12 08:24:29;;;;;;;74.50;44.72;;;;;;;;;;4989249;28;25052;-71
2023/09/12 08:26:55;;;;;;;74.40;44.17;;;;;;;;;;4992860;28;25075;-70
2023/09/12 08:29:21;;;;;;;81.15;45.28;;;;;;;;;;4991595;28;25088;-71
2023/09/12 08:31:47;;;;;;;77.88;45.08;;;;;;;;;;4988355;28;25074;-72
2023/09/12 08:34:13;;;;;;;69.93;42.13;;;;;;;;;;4992222;28;25072;-72
2023/09/12 08:36:39;;;;;;;77.43;46.78;;;;;;;;;;4988836;28;25083;-71
2023/09/12 08:39:08;;;;;;;69.03;42.97;;;;;;;;;;4993111;28;25058;-70
2023/09/12 08:41:34;;;;;;;74.20;43.65;;;;;;;;;;4991416;28;25060;-71
2023/09/12 08:44:01;;;;;;;67.80;42.08;;;;;;;;;;4988046;28;25136;-69
2023/09/12 08:46:27;;;;;;;66.20;42.50;;;;;;;;;;4987233;28;25111;-69
2023/09/12 08:48:55;;;;;;;68.93;43.83;;;;;;;;;;4983570;28;25054;-71
2023/09/12 08:51:23;;;;;;;74.05;43.30;;;;;;;;;;4986156;28;25087;-72
2023/09/12 08:53:49;;;;;;;66.15;43.47;;;;;;;;;;4989739;28;25067;-74
2023/09/12 08:56:15;;;;;;;67.40;41.65;;;;;;;;;;4988759;28;25059;-73
2023/09/12 08:58:41;;;;;;;72.50;44.33;;;;;;;;;;4986966;28;25067;-73
2023/09/12 09:01:09;;;;;;;74.18;45.75;;;;;;;;;;4980767;28;25082;-71
2023/09/12 09:03:35;;;;;;;70.35;45.55;;;;;;;;;;4987870;28;25074;-72
2023/09/12 09:06:02;;;;;;;72.88;44.97;;;;;;;;;;4988203;28;25067;-71
2023/09/12 09:08:29;;;;;;;72.88;45.85;;;;;;;;;;4985437;28;25058;-70
2023/09/12 09:10:58;;;;;;;68.25;46.47;;;;;;;;;;4986848;28;25073;-72
2023/09/12 09:13:25;;;;;;;70.60;44.95;;;;;;;;;;4982725;28;25066;-69
2023/09/12 09:16:09;;;;;;;70.82;44.75;;;;;;;;;;4988457;28;25091;-70
2023/09/12 09:18:50;;;;;;;65.25;43.72;;;;;;;;;;4985984;28;25047;-72
2023/09/12 09:21:19;;;;;;;69.82;44.30;;;;;;;;;;4979332;28;25153;-71
2023/09/12 09:23:47;;;;;;;64.72;43.35;;;;;;;;;;4987869;28;25077;-70
2023/09/12 09:26:13;;;;;;;69.85;45.67;;;;;;;;;;4987274;28;25068;-71
2023/09/12 09:28:39;;;;;;;68.53;44.03;;;;;;;;;;4982028;28;25091;-71
2023/09/12 09:31:07;;;;;;;68.05;45.47;;;;;;;;;;4986530;28;25069;-71
2023/09/12 09:33:36;;;;;;;67.00;44.92;;;;;;;;;;4987513;28;25069;-72
2023/09/12 09:36:06;;;;;;;76.22;48.85;;;;;;;;;;4983595;28;25088;-72
2023/09/12 09:38:32;;;;;;;77.38;48.58;;;;;;;;;;4984168;28;25067;-69
2023/09/12 09:40:58;;;;;;;77.20;48.55;;;;;;;;;;4986219;28;25064;-73
2023/09/12 09:43:24;;;;;;;75.68;49.00;;;;;;;;;;4982692;28;25070;-70
2023/09/12 09:45:51;;;;;;;75.20;46.75;;;;;;;;;;4986035;28;25076;-72
2023/09/12 09:48:20;;;;;;;83.03;51.13;;;;;;;;;;4987348;28;25074;-71
2023/09/12 09:50:46;;;;;;;80.65;50.45;;;;;;;;;;4989066;28;25067;-71
2023/09/12 09:53:12;;;;;;;85.95;50.28;;;;;;;;;;4987148;28;25143;-71
2023/09/12 09:55:38;;;;;;;79.90;49.10;;;;;;;;;;4987425;28;25076;-71
2023/09/12 09:58:07;;;;;;;79.47;48.33;;;;;;;;;;4989072;28;25073;-71
2023/09/12 10:00:39;;;;;;;78.70;47.83;;;;;;;;;;4989707;28;25076;-72
2023/09/12 10:03:06;;;;;;;78.13;47.63;;;;;;;;;;4985303;28;25070;-72
2023/09/12 10:05:32;;;;;;;80.35;48.05;;;;;;;;;;4988354;28;25077;-72
2023/09/12 10:08:00;;;;;;;75.75;48.53;;;;;;;;;;4989384;28;25107;-71
2023/09/12 10:10:28;;;;;;;71.57;44.65;;;;;;;;;;4989571;28;25060;-71
2023/09/12 10:12:57;;;;;;;72.53;47.00;;;;;;;;;;4985537;28;25093;-71
2023/09/12 10:15:23;;;;;;;76.28;47.90;;;;;;;;;;4991979;28;25074;-73
2023/09/12 10:17:57;;;;;;;79.80;50.20;;;;;;;;;;4986420;28;25153;-73
2023/09/12 10:20:25;;;;;;;86.50;50.47;;;;;;;;;;4987360;28;25080;-74
2023/09/12 10:23:11;;;;;;;82.20;47.50;;;;;;;;;;4988432;28;25071;-72
2023/09/12 10:25:37;;;;;;;72.28;44.53;;;;;;;;;;4988128;28;25072;-74
2023/09/12 10:28:05;;;;;;;75.20;45.17;;;;;;;;;;4989201;28;25065;-74
2023/09/12 10:30:31;;;;;;;75.00;43.90;;;;;;;;;;4990677;28;25146;-70
2023/09/12 10:32:58;;;;;;;76.95;44.50;;;;;;;;;;4985836;28;25077;-72
2023/09/12 10:35:24;;;;;;;72.88;44.38;;;;;;;;;;4989130;28;25187;-72
2023/09/12 10:37:51;;;;;;;76.18;47.67;;;;;;;;;;4994762;28;25086;-73
2023/09/12 10:40:18;;;;;;;77.03;45.58;;;;;;;;;;4995859;28;25055;-72
2023/09/12 10:42:45;;;;;;;75.43;45.58;;;;;;;;;;4995125;28;25080;-73
2023/09/12 10:45:11;;;;;;;74.78;47.75;;;;;;;;;;5000320;28;25066;-72
2023/09/12 10:47:38;;;;;;;73.55;45.17;;;;;;;;;;4993399;28;25136;-73
2023/09/12 10:50:04;;;;;;;75.63;46.38;;;;;;;;;;4997022;28;25077;-74
2023/09/12 10:52:30;;;;;;;74.28;43.67;;;;;;;;;;4995218;28;25073;-69
2023/09/12 10:54:56;;;;;;;75.60;42.00;;;;;;;;;;4996286;28;25071;-74
2023/09/12 10:57:22;;;;;;;70.05;41.95;;;;;;;;;;4999095;28;25109;-74
2023/09/12 11:00:04;;;;;;;75.90;45.28;;;;;;;;;;5007954;28;25073;-74
2023/09/12 11:02:31;;;;;;;70.88;43.67;;;;;;;;;;5006077;28;25063;-73
2023/09/12 11:04:57;;;;;;;72.78;43.85;;;;;;;;;;5006591;28;25063;-72
2023/09/12 11:07:31;;;;;;;71.88;42.53;;;;;;;;;;5004766;28;25057;-74
2023/09/12 11:10:16;;;;;;;71.15;43.22;;;;;;;;;;5012023;28;25045;-73
2023/09/12 11:12:42;;;;;;;71.35;44.83;;;;;;;;;;5005588;28;25054;-74
2023/09/12 11:15:10;;;;;;;68.55;41.95;;;;;;;;;;5012532;28;25085;-73
2023/09/12 11:17:43;;;;;;;78.35;46.53;;;;;;;;;;5007864;28;25061;-74
2023/09/12 11:20:12;;;;;;;80.38;46.60;;;;;;;;;;4994482;28;25066;-73
2023/09/12 11:22:41;;;;;;;81.28;47.15;;;;;;;;;;4993729;28;25052;-72
2023/09/12 11:25:27;;;;;;;70.03;44.10;;;;;;;;;;4992788;28;25058;-73
2023/09/12 11:27:53;;;;;;;70.60;42.92;;;;;;;;;;4991539;28;25059;-73
2023/09/12 11:30:20;;;;;;;69.65;44.42;;;;;;;;;;5000679;28;25075;-75
2023/09/12 11:32:47;;;;;;;70.00;44.25;;;;;;;;;;4992474;28;25176;-74
2023/09/12 11:35:14;;;;;;;71.45;43.83;;;;;;;;;;4992067;28;25138;-75
2023/09/12 11:37:40;;;;;;;73.25;44.90;;;;;;;;;;5001395;28;25079;-74
2023/09/12 11:40:11;;;;;;;73.00;44.35;;;;;;;;;;5004337;28;25069;-75
2023/09/12 11:42:41;;;;;;;62.70;41.92;;;;;;;;;;4995572;28;25057;-73
2023/09/12 11:45:11;;;;;;;67.43;43.75;;;;;;;;;;4988596;28;25052;-75
2023/09/12 11:47:43;;;;;;;69.70;44.30;;;;;;;;;;4994477;28;25059;-74
2023/09/12 11:50:25;;;;;;;73.05;44.20;;;;;;;;;;4987065;28;25078;-73
2023/09/12 11:52:58;;;;;;;77.60;45.33;;;;;;;;;;4992299;28;25075;-74
2023/09/12 11:55:25;;;;;;;66.97;41.85;;;;;;;;;;4988542;28;25077;-74
2023/09/12 11:57:51;;;;;;;67.57;43.30;;;;;;;;;;4992493;28;25071;-73
2023/09/12 12:00:19;;;;;;;65.93;42.42;;;;;;;;;;4990758;28;25152;-74
2023/09/12 12:02:45;;;;;;;71.53;42.13;;;;;;;;;;4990504;28;25141;-75
2023/09/12 12:05:11;;;;;;;67.57;42.28;;;;;;;;;;4988747;28;25081;-74
2023/09/12 12:07:38;;;;;;;71.07;42.13;;;;;;;;;;4991249;28;25167;-71
2023/09/12 12:10:04;;;;;;;61.45;40.53;;;;;;;;;;4985162;28;25161;-73
2023/09/12 12:12:30;;;;;;;71.38;42.25;;;;;;;;;;4994543;28;25064;-74
2023/09/12 12:14:56;;;;;;;62.75;40.08;;;;;;;;;;4988938;28;25067;-72
2023/09/12 12:17:22;;;;;;;65.05;40.90;;;;;;;;;;4990469;28;25053;-75
2023/09/12 12:19:48;;;;;;;62.83;41.97;;;;;;;;;;4990925;28;25055;-76
2023/09/12 12:22:14;;;;;;;63.70;39.85;;;;;;;;;;4994954;28;25062;-73
2023/09/12 12:24:45;;;;;;;60.35;38.33;;;;;;;;;;4993007;28;25086;-73
2023/09/12 12:27:12;;;;;;;60.95;38.38;;;;;;;;;;4992287;28;25070;-72
2023/09/12 12:29:43;;;;;;;60.67;38.47;;;;;;;;;;4997437;28;25077;-75
2023/09/12 12:32:10;;;;;;;56.92;38.30;;;;;;;;;;4987875;28;25062;-73
2023/09/12 12:34:36;;;;;;;63.47;39.53;;;;;;;;;;4999348;28;25070;-76
2023/09/12 12:37:02;;;;;;;63.72;38.70;;;;;;;;;;4999487;28;25069;-74
2023/09/12 12:39:29;;;;;;;61.05;36.95;;;;;;;;;;4995562;28;25091;-76
2023/09/12 12:41:55;;;;;;;59.50;36.58;;;;;;;;;;4992807;28;25064;-73
2023/09/12 12:44:22;;;;;;;56.22;34.92;;;;;;;;;;4987809;28;25079;-74
2023/09/12 12:46:54;;;;;;;57.35;36.22;;;;;;;;;;4991756;28;25079;-72
2023/09/12 12:49:21;;;;;;;55.80;37.67;;;;;;;;;;4992164;28;25084;-75
2023/09/12 12:51:47;;;;;;;51.25;33.72;;;;;;;;;;4991163;28;25122;-74
2023/09/12 12:54:14;;;;;;;52.22;32.53;;;;;;;;;;4992266;28;25177;-74
2023/09/12 12:56:40;;;;;;;51.63;33.60;;;;;;;;;;4987907;28;25047;-74
2023/09/12 12:59:08;;;;;;;51.85;35.30;;;;;;;;;;4987566;28;25073;-73
2023/09/12 13:01:35;;;;;;;50.63;32.38;;;;;;;;;;4992309;28;25122;-72
2023/09/12 13:04:01;;;;;;;45.75;31.55;;;;;;;;;;4994181;28;25086;-74
2023/09/12 13:06:29;;;;;;;44.30;28.65;;;;;;;;;;4996818;28;25126;-72
2023/09/12 13:08:57;;;;;;;45.42;30.95;;;;;;;;;;5007082;28;25127;-72
2023/09/12 13:11:23;;;;;;;36.97;26.25;;;;;;;;;;4996807;28;25049;-74
2023/09/12 13:13:49;;;;;;;38.80;26.90;;;;;;;;;;4989230;28;25141;-73
2023/09/12 13:16:16;;;;;;;39.67;28.35;;;;;;;;;;4998809;28;25052;-72
2023/09/12 13:18:42;;;;;;;39.85;26.85;;;;;;;;;;4997672;28;25086;-71
2023/09/12 13:21:08;;;;;;;42.97;29.23;;;;;;;;;;5005987;28;25050;-73
2023/09/12 13:23:37;;;;;;;40.20;26.85;;;;;;;;;;4997760;28;25074;-73
2023/09/12 13:26:03;;;;;;;34.63;25.85;;;;;;;;;;4999191;28;25143;-74
2023/09/12 13:28:30;;;;;;;39.80;27.95;;;;;;;;;;4995155;28;25061;-72
2023/09/12 13:30:57;;;;;;;40.60;27.95;;;;;;;;;;5005488;28;25173;-73
2023/09/12 13:33:23;;;;;;;43.40;28.95;;;;;;;;;;5000383;28;25053;-74
2023/09/12 13:35:50;;;;;;;44.00;28.05;;;;;;;;;;5002999;28;25063;-73
2023/09/12 13:38:16;;;;;;;42.47;28.55;;;;;;;;;;5000770;28;25049;-75
2023/09/12 13:40:44;;;;;;;41.85;29.98;;;;;;;;;;4989891;28;25091;-73
2023/09/12 13:43:09;;;;;;;46.60;32.78;;;;;;;;;;4998534;28;25075;-74
2023/09/12 13:45:36;;;;;;;51.78;33.83;;;;;;;;;;4992171;28;25103;-73
2023/09/12 13:48:05;;;;;;;49.30;33.33;;;;;;;;;;5003361;28;25062;-73
2023/09/12 13:50:31;;;;;;;50.65;33.67;;;;;;;;;;4999539;28;25061;-74
2023/09/12 13:53:06;;;;;;;47.78;31.98;;;;;;;;;;4995287;28;25063;-73
2023/09/12 13:55:32;;;;;;;46.33;33.13;;;;;;;;;;4993376;28;25094;-72
2023/09/12 13:57:59;;;;;;;46.40;34.28;;;;;;;;;;4995167;28;25063;-72
2023/09/12 14:00:25;;;;;;;44.08;32.38;;;;;;;;;;4990800;28;25085;-73
2023/09/12 14:02:51;;;;;;;46.33;31.70;;;;;;;;;;4998733;28;25049;-73
2023/09/12 14:05:17;;;;;;;44.78;33.70;;;;;;;;;;4991708;28;25062;-73
2023/09/12 14:07:43;;;;;;;42.25;30.77;;;;;;;;;;4988923;28;25117;-72
2023/09/12 14:10:10;;;;;;;45.28;30.67;;;;;;;;;;5000539;28;25080;-73
2023/09/12 14:12:36;;;;;;;42.65;28.58;;;;;;;;;;4992679;28;25123;-75
2023/09/12 14:15:03;;;;;;;41.67;28.55;;;;;;;;;;5000159;28;25148;-73